Terminal Aerodrome Forecast
Issued by NWS

Home | Current Version | Previous Version | Text Only | Print | Product List | Glossary On
Versions: 1 2 3 4 5 6 7 8 9 10 11 12 13 14 15 16 17 18 19
578
FTUS41 KPHI 031734
TAFPNE
TAF
KPNE 031734Z 0318/0418 30015G22KT P6SM OVC045
     FM032200 31012KT P6SM BKN050
     FM040000 32008KT P6SM BKN050
     FM040400 33004KT P6SM SCT050
     FM041400 33008KT P6SM SKC=

USA.gov is the U.S. government's official web portal to all federal, state and local government web resources and services.